createdAt,value
2019-02-28T00:02:29.685Z,17.85
2019-02-28T00:05:00.388Z,17.42
2019-02-28T00:07:31.109Z,19.48
2019-02-28T00:10:01.435Z,19.48
2019-02-28T00:12:32.434Z,20.05
2019-02-28T00:15:03.096Z,21.02
2019-02-28T00:17:33.450Z,20.77
2019-02-28T00:20:05.004Z,18.80
2019-02-28T00:22:35.404Z,19.67
2019-02-28T00:25:08.935Z,25.02
2019-02-28T00:27:39.931Z,22.85
2019-02-28T00:30:17.045Z,17.20
2019-02-28T00:32:47.897Z,23.83
2019-02-28T00:35:18.812Z,19.12
2019-02-28T00:37:49.222Z,21.37
2019-02-28T00:40:19.874Z,20.50
2019-02-28T00:42:50.726Z,21.42
2019-02-28T00:45:22.589Z,21.02
2019-02-28T00:47:53.239Z,18.02
2019-02-28T00:50:27.592Z,24.87
2019-02-28T00:52:58.984Z,21.60
2019-02-28T00:55:29.637Z,29.57
2019-02-28T00:57:59.965Z,19.50
2019-02-28T01:00:30.595Z,23.70
2019-02-28T01:03:01.072Z,21.90
2019-02-28T01:05:31.689Z,22.15
2019-02-28T01:08:02.438Z,21.70
2019-02-28T01:10:39.304Z,19.87
2019-02-28T01:13:09.363Z,19.00
2019-02-28T01:15:44.488Z,19.82
2019-02-28T01:18:11.981Z,28.27
2019-02-28T01:20:42.937Z,21.70
2019-02-28T01:23:13.480Z,18.42
2019-02-28T01:25:44.082Z,18.77
2019-02-28T01:28:14.785Z,17.65
2019-02-28T01:30:45.165Z,22.87
2019-02-28T01:33:15.820Z,24.45
2019-02-28T01:35:46.148Z,17.23
2019-02-28T01:38:16.694Z,19.95
2019-02-28T01:40:47.024Z,19.67
2019-02-28T01:43:17.348Z,20.97
2019-02-28T01:45:47.977Z,20.68
2019-02-28T01:48:18.897Z,16.30
2019-02-28T01:50:49.224Z,15.85
2019-02-28T01:53:19.896Z,19.92
2019-02-28T01:55:50.250Z,20.70
2019-02-28T01:58:20.894Z,19.75
2019-02-28T02:00:53.539Z,20.10
2019-02-28T02:03:24.001Z,18.15
2019-02-28T02:05:54.623Z,19.07
2019-02-28T02:08:25.419Z,18.50
2019-02-28T02:10:56.165Z,20.92
2019-02-28T02:13:26.928Z,13.43
2019-02-28T02:15:57.657Z,14.63
2019-02-28T02:18:28.279Z,20.97
2019-02-28T02:21:00.119Z,17.80
2019-02-28T02:23:31.266Z,20.05
2019-02-28T02:26:01.906Z,17.07
2019-02-28T02:28:33.070Z,12.65
2019-02-28T02:31:03.797Z,18.15
2019-02-28T02:33:34.263Z,15.15
2019-02-28T02:36:04.892Z,21.77
2019-02-28T02:38:40.173Z,12.60
2019-02-28T02:41:07.939Z,14.47
2019-02-28T02:43:38.265Z,16.32
2019-02-28T02:46:08.911Z,18.92
2019-02-28T02:48:42.322Z,10.10
2019-02-28T02:51:12.608Z,12.70
2019-02-28T02:53:43.568Z,13.72
2019-02-28T02:56:14.428Z,14.65
2019-02-28T02:58:45.111Z,15.23
2019-02-28T03:01:15.743Z,14.68
2019-02-28T03:03:46.123Z,14.95
2019-02-28T03:06:16.718Z,13.68
2019-02-28T03:08:47.375Z,13.48
2019-02-28T03:11:17.735Z,13.15
2019-02-28T03:13:48.375Z,11.40
2019-02-28T03:16:19.014Z,15.25
2019-02-28T03:18:56.937Z,12.73
2019-02-28T03:21:22.096Z,20.27
2019-02-28T03:23:52.589Z,15.50
2019-02-28T03:26:23.247Z,15.68
2019-02-28T03:28:53.585Z,19.62
2019-02-28T03:31:24.126Z,19.25
2019-02-28T03:33:54.436Z,17.05
2019-02-28T03:36:24.755Z,15.53
2019-02-28T03:38:55.435Z,9.65
2019-02-28T03:41:26.286Z,16.67
2019-02-28T03:43:56.634Z,12.80
2019-02-28T03:46:26.995Z,17.55
2019-02-28T03:48:57.336Z,12.50
2019-02-28T03:51:28.734Z,17.10
2019-02-28T03:54:00.259Z,15.70
2019-02-28T03:56:30.850Z,18.40
2019-02-28T03:59:01.176Z,14.60
2019-02-28T04:01:31.554Z,13.70
2019-02-28T04:04:01.902Z,12.98
2019-02-28T04:06:32.228Z,13.83
2019-02-28T04:09:08.463Z,14.73
2019-02-28T04:11:35.706Z,14.75
2019-02-28T04:14:06.296Z,17.25
2019-02-28T04:16:36.947Z,19.23
2019-02-28T04:19:07.273Z,33.83
2019-02-28T04:21:37.601Z,16.95
2019-02-28T04:24:12.447Z,15.25
2019-02-28T04:26:40.435Z,17.98
2019-02-28T04:29:10.789Z,15.90
2019-02-28T04:31:41.426Z,19.52
2019-02-28T04:34:13.355Z,18.57
2019-02-28T04:36:44.117Z,34.90
2019-02-28T04:39:14.790Z,19.73
2019-02-28T04:41:45.715Z,20.27
2019-02-28T04:44:18.265Z,22.27
2019-02-28T04:46:48.098Z,24.75
2019-02-28T04:49:21.825Z,22.93
2019-02-28T04:51:50.770Z,18.17
2019-02-28T04:54:24.575Z,20.25
2019-02-28T04:56:53.711Z,27.95
2019-02-28T04:59:24.304Z,28.57
2019-02-28T05:01:55.184Z,27.62
2019-02-28T05:04:25.846Z,27.37
2019-02-28T05:06:56.457Z,35.15
2019-02-28T05:09:27.146Z,27.52
2019-02-28T05:11:57.770Z,27.87
2019-02-28T05:14:28.406Z,28.90
2019-02-28T05:16:59.244Z,29.70
2019-02-28T05:19:35.405Z,30.48
2019-02-28T05:22:01.896Z,29.82
2019-02-28T05:24:32.554Z,34.20
2019-02-28T05:27:03.144Z,26.77
2019-02-28T05:29:33.468Z,31.82
2019-02-28T05:32:03.944Z,29.42
2019-02-28T05:34:34.412Z,33.78
2019-02-28T05:37:04.763Z,33.80
2019-02-28T05:39:35.652Z,34.65
2019-02-28T05:42:06.009Z,28.85
2019-02-28T05:44:37.387Z,31.68
2019-02-28T05:47:10.936Z,39.05
2019-02-28T05:49:41.994Z,36.77
2019-02-28T05:52:12.761Z,31.00
2019-02-28T05:54:43.239Z,35.88
2019-02-28T05:57:13.863Z,33.15
2019-02-28T05:59:44.757Z,37.38
2019-02-28T06:02:15.418Z,38.75
2019-02-28T06:04:46.041Z,35.38
2019-02-28T06:07:16.662Z,42.33
2019-02-28T06:09:48.803Z,39.00
2019-02-28T06:12:19.124Z,39.33
2019-02-28T06:14:49.765Z,39.33
2019-02-28T06:17:20.749Z,36.05
2019-02-28T06:19:52.532Z,36.60
2019-02-28T06:22:23.009Z,38.15
2019-02-28T06:24:53.415Z,37.20
2019-02-28T06:27:24.352Z,37.90
2019-02-28T06:29:54.905Z,44.53
2019-02-28T06:32:27.405Z,41.65
2019-02-28T06:34:57.742Z,41.85
2019-02-28T06:37:28.740Z,41.50
2019-02-28T06:39:59.375Z,40.73
2019-02-28T06:42:29.872Z,41.05
2019-02-28T06:45:02.648Z,38.63
2019-02-28T06:47:32.528Z,45.12
2019-02-28T06:50:03.476Z,48.17
2019-02-28T06:52:34.402Z,43.10
2019-02-28T06:55:12.598Z,48.10
2019-02-28T06:57:42.382Z,47.75
2019-02-28T07:00:15.585Z,45.65
2019-02-28T07:02:46.216Z,46.28
2019-02-28T07:05:16.812Z,48.15
2019-02-28T07:07:49.088Z,49.65
2019-02-28T07:10:19.572Z,44.30
2019-02-28T07:12:50.223Z,45.05
2019-02-28T07:15:24.802Z,49.13
2019-02-28T07:17:52.880Z,55.92
2019-02-28T07:20:23.500Z,51.92
2019-02-28T07:22:55.526Z,54.85
2019-02-28T07:25:26.481Z,55.73
2019-02-28T07:27:57.129Z,51.37
2019-02-28T07:30:27.859Z,56.00
2019-02-28T07:32:59.140Z,52.62
2019-02-28T07:35:33.196Z,55.65
2019-02-28T07:38:01.499Z,52.35
2019-02-28T07:40:33.292Z,56.08
2019-02-28T07:43:03.638Z,55.70
2019-02-28T07:45:34.235Z,60.85
2019-02-28T07:48:04.981Z,58.83
2019-02-28T07:50:35.329Z,63.30
2019-02-28T07:53:08.824Z,54.42
2019-02-28T07:55:38.057Z,60.52
2019-02-28T07:58:08.803Z,64.65
2019-02-28T08:00:39.177Z,63.23
2019-02-28T08:03:11.336Z,70.97
2019-02-28T08:05:41.617Z,58.85
2019-02-28T08:08:12.280Z,62.80
2019-02-28T08:10:42.651Z,61.77
2019-02-28T08:13:13.587Z,61.53
2019-02-28T08:15:43.951Z,71.70
2019-02-28T08:18:15.828Z,60.30
2019-02-28T08:20:46.398Z,66.28
2019-02-28T08:23:16.926Z,71.47
2019-02-28T08:25:47.699Z,66.30
2019-02-28T08:28:18.445Z,74.55
2019-02-28T08:30:54.724Z,77.12
2019-02-28T08:33:20.872Z,79.05
2019-02-28T08:35:51.231Z,77.47
2019-02-28T08:38:21.616Z,74.30
2019-02-28T08:40:52.547Z,77.95
2019-02-28T08:43:27.227Z,85.38
2019-02-28T08:45:55.960Z,74.60
2019-02-28T08:48:31.396Z,86.47
2019-02-28T08:50:58.681Z,73.60
2019-02-28T08:53:29.377Z,90.57
2019-02-28T08:55:59.747Z,76.37
2019-02-28T08:58:30.107Z,78.57
2019-02-28T09:01:00.746Z,79.35
2019-02-28T09:03:31.110Z,73.35
2019-02-28T09:06:03.803Z,86.90
2019-02-28T09:08:33.980Z,79.47
2019-02-28T09:11:04.584Z,80.77
2019-02-28T09:13:34.944Z,82.47
2019-02-28T09:16:05.622Z,78.87
2019-02-28T09:18:35.980Z,81.90
2019-02-28T09:21:06.327Z,79.67
2019-02-28T09:23:37.728Z,78.83
2019-02-28T09:26:09.068Z,76.60
2019-02-28T09:28:39.448Z,82.70
2019-02-28T09:31:10.240Z,79.40
2019-02-28T09:33:40.762Z,76.43
2019-02-28T09:36:11.109Z,84.07
2019-02-28T09:38:42.266Z,86.70
2019-02-28T09:41:14.146Z,85.50
2019-02-28T09:43:44.515Z,79.90
2019-02-28T09:46:15.551Z,76.23
2019-02-28T09:48:46.736Z,79.20
2019-02-28T09:51:17.105Z,74.27
2019-02-28T09:53:50.276Z,86.17
2019-02-28T09:56:19.827Z,88.77
2019-02-28T09:58:50.199Z,79.30
2019-02-28T10:01:21.226Z,80.20
2019-02-28T10:03:55.333Z,95.73
2019-02-28T10:06:24.956Z,81.90
2019-02-28T10:08:55.591Z,83.10
2019-02-28T10:11:31.516Z,78.00
2019-02-28T10:13:58.293Z,79.70
2019-02-28T10:16:28.679Z,83.17
2019-02-28T10:18:59.026Z,84.07
2019-02-28T10:21:29.373Z,75.83
2019-02-28T10:23:59.759Z,72.37
2019-02-28T10:26:30.367Z,73.50
2019-02-28T10:29:01.292Z,85.10
2019-02-28T10:31:38.080Z,81.40
2019-02-28T10:34:03.758Z,83.67
2019-02-28T10:36:34.508Z,83.87
2019-02-28T10:39:09.056Z,86.90
2019-02-28T10:41:38.749Z,90.87
2019-02-28T10:44:09.387Z,79.20
2019-02-28T10:46:39.771Z,78.87
2019-02-28T10:49:10.146Z,72.03
2019-02-28T10:51:40.757Z,77.30
2019-02-28T10:54:14.325Z,71.80
2019-02-28T10:56:43.187Z,94.03
2019-02-28T10:59:14.083Z,70.33
2019-02-28T11:01:44.479Z,80.17
2019-02-28T11:04:15.088Z,66.77
2019-02-28T11:06:46.853Z,68.97
2019-02-28T11:09:21.738Z,73.23
2019-02-28T11:11:51.405Z,79.43
2019-02-28T11:14:23.644Z,73.30
2019-02-28T11:16:58.944Z,80.50
2019-02-28T11:19:26.823Z,69.27
2019-02-28T11:21:57.187Z,76.23
2019-02-28T11:24:27.935Z,71.57
2019-02-28T11:26:58.306Z,72.60
2019-02-28T11:29:28.942Z,78.83
2019-02-28T11:31:59.582Z,71.53
2019-02-28T11:34:29.924Z,73.30
2019-02-28T11:37:00.399Z,71.33
2019-02-28T11:39:33.648Z,70.03
2019-02-28T11:42:02.894Z,75.70
2019-02-28T11:44:33.240Z,72.40
2019-02-28T11:47:03.657Z,69.83
2019-02-28T11:49:34.000Z,67.03
2019-02-28T11:52:04.386Z,67.83
2019-02-28T11:54:34.759Z,57.50
2019-02-28T11:57:06.845Z,65.53
2019-02-28T11:59:37.515Z,69.60
2019-02-28T12:02:07.971Z,70.47
2019-02-28T12:04:40.423Z,66.83
2019-02-28T12:07:10.618Z,79.57
2019-02-28T12:09:41.160Z,65.43
2019-02-28T12:12:11.798Z,66.83
2019-02-28T12:14:42.513Z,67.03
2019-02-28T12:17:15.068Z,74.97
2019-02-28T12:19:47.575Z,61.60
2019-02-28T12:22:17.593Z,78.03
2019-02-28T12:24:48.529Z,60.43
2019-02-28T12:27:19.189Z,65.97
2019-02-28T12:29:50.037Z,69.70
2019-02-28T12:32:20.435Z,77.17
2019-02-28T12:34:51.088Z,67.37
2019-02-28T12:37:22.262Z,66.30
2019-02-28T12:39:53.749Z,74.50
2019-02-28T12:42:24.359Z,59.83
2019-02-28T12:44:55.014Z,66.27
2019-02-28T12:47:28.918Z,65.37
2019-02-28T12:49:59.353Z,71.50
2019-02-28T12:52:30.002Z,72.13
2019-02-28T12:55:00.442Z,75.93
2019-02-28T12:57:30.786Z,70.30
2019-02-28T13:00:01.436Z,76.40
2019-02-28T13:02:32.350Z,70.90
2019-02-28T13:05:02.969Z,62.40
2019-02-28T13:07:33.899Z,72.00
2019-02-28T13:10:09.278Z,72.57
2019-02-28T13:12:40.311Z,59.43
2019-02-28T13:15:13.943Z,65.73
2019-02-28T13:17:44.628Z,61.07
2019-02-28T13:20:22.123Z,66.27
2019-02-28T13:22:55.609Z,60.53
2019-02-28T13:25:24.953Z,64.67
2019-02-28T13:30:26.525Z,82.60
2019-02-28T13:32:57.273Z,59.90
2019-02-28T13:35:33.901Z,71.40
2019-02-28T13:38:04.274Z,64.50
2019-02-28T13:40:34.893Z,68.00
2019-02-28T13:43:05.872Z,67.23
2019-02-28T13:45:36.212Z,63.10
2019-02-28T13:48:06.590Z,68.50
2019-02-28T13:50:37.852Z,72.20
2019-02-28T13:53:17.539Z,76.60
2019-02-28T13:55:41.103Z,69.40
2019-02-28T13:58:11.498Z,72.00
2019-02-28T14:00:45.588Z,74.93
2019-02-28T14:03:17.035Z,67.37
2019-02-28T14:05:47.440Z,76.70
2019-02-28T14:08:18.059Z,71.57
2019-02-28T14:10:48.424Z,69.13
2019-02-28T14:13:18.908Z,68.20
2019-02-28T14:15:52.522Z,72.13
2019-02-28T14:18:23.054Z,73.87
2019-02-28T14:20:53.727Z,77.00
2019-02-28T14:23:24.633Z,78.70
2019-02-28T14:25:55.237Z,67.00
2019-02-28T14:28:26.146Z,65.63
2019-02-28T14:30:57.521Z,68.67
2019-02-28T14:33:29.395Z,70.53
2019-02-28T14:36:00.065Z,70.57
2019-02-28T14:38:32.830Z,71.70
2019-02-28T14:41:02.736Z,66.60
2019-02-28T14:43:33.158Z,74.27
2019-02-28T14:46:03.739Z,72.53
2019-02-28T14:48:36.615Z,81.60
2019-02-28T14:51:06.144Z,82.50
2019-02-28T14:53:36.525Z,86.73
2019-02-28T14:56:07.443Z,76.87
2019-02-28T14:58:38.697Z,77.37
2019-02-28T15:01:09.513Z,68.97
2019-02-28T15:03:39.851Z,70.10
2019-02-28T15:06:10.264Z,73.57
2019-02-28T15:08:40.866Z,73.40
2019-02-28T15:11:11.211Z,73.83
2019-02-28T15:13:42.016Z,64.27
2019-02-28T15:16:12.657Z,75.80
2019-02-28T15:18:44.397Z,75.73
2019-02-28T15:21:15.130Z,72.43
2019-02-28T15:23:45.501Z,73.37
2019-02-28T15:26:16.131Z,75.13
2019-02-28T15:28:48.654Z,89.43
2019-02-28T15:31:18.615Z,77.23
2019-02-28T15:33:48.987Z,84.83
2019-02-28T15:36:20.892Z,71.23
2019-02-28T15:38:52.018Z,79.40
2019-02-28T15:41:22.369Z,72.23
2019-02-28T15:43:53.707Z,78.13
2019-02-28T15:46:24.713Z,71.90
2019-02-28T15:48:55.077Z,75.00
2019-02-28T15:51:29.104Z,70.00
2019-02-28T15:53:58.402Z,82.47
2019-02-28T15:56:28.804Z,70.20
2019-02-28T15:58:59.497Z,62.10
2019-02-28T16:01:32.345Z,65.40
2019-02-28T16:04:01.913Z,75.70
2019-02-28T16:06:32.537Z,73.97
2019-02-28T16:09:02.912Z,71.23
2019-02-28T16:11:33.577Z,70.70
2019-02-28T16:14:04.538Z,81.47
2019-02-28T16:16:34.915Z,67.27
2019-02-28T16:19:05.575Z,69.43
2019-02-28T16:21:38.195Z,71.63
2019-02-28T16:24:08.626Z,76.03
2019-02-28T16:26:39.250Z,73.40
2019-02-28T16:29:09.687Z,75.20
2019-02-28T16:31:41.636Z,73.13
2019-02-28T16:34:12.338Z,72.30
2019-02-28T16:36:42.968Z,79.80
2019-02-28T16:39:16.883Z,81.57
2019-02-28T16:41:46.229Z,81.37
2019-02-28T16:44:16.924Z,81.10
2019-02-28T16:46:49.965Z,90.60
2019-02-28T16:49:19.602Z,85.53
2019-02-28T16:51:49.961Z,87.77
2019-02-28T16:54:22.472Z,95.17
2019-02-28T16:56:52.375Z,96.57
2019-02-28T16:59:23.530Z,96.72
2019-02-28T17:01:54.865Z,88.52
2019-02-28T17:04:26.385Z,89.75
2019-02-28T17:06:57.012Z,98.35
2019-02-28T17:09:30.231Z,105.15
2019-02-28T17:12:02.703Z,97.40
2019-02-28T17:14:33.489Z,99.92
2019-02-28T17:17:05.483Z,93.30
2019-02-28T17:19:35.850Z,104.47
2019-02-28T17:22:06.231Z,92.97
2019-02-28T17:24:36.865Z,107.60
2019-02-28T17:27:17.673Z,108.52
2019-02-28T17:29:49.649Z,100.92
2019-02-28T17:32:20.184Z,100.38
2019-02-28T17:34:50.946Z,99.60
2019-02-28T17:37:26.027Z,99.45
2019-02-28T17:39:53.922Z,109.00
2019-02-28T17:42:24.345Z,111.88
2019-02-28T17:44:59.758Z,103.30
2019-02-28T17:47:55.952Z,100.25
2019-02-28T17:50:43.998Z,101.38
2019-02-28T17:53:45.667Z,105.72
2019-02-28T17:56:50.067Z,101.55
2019-02-28T17:59:49.226Z,97.80
2019-02-28T18:02:42.547Z,128.62
2019-02-28T18:05:45.890Z,94.15
2019-02-28T18:08:37.613Z,98.47
2019-02-28T18:11:35.526Z,103.10
2019-02-28T18:14:46.743Z,113.20
2019-02-28T18:18:02.080Z,111.95
2019-02-28T18:21:00.703Z,100.72
2019-02-28T18:24:11.919Z,102.27
2019-02-28T18:27:11.326Z,102.62
2019-02-28T18:30:09.128Z,102.62
2019-02-28T18:32:39.467Z,96.37
2019-02-28T18:35:10.559Z,113.80
2019-02-28T18:37:40.993Z,105.47
2019-02-28T18:40:11.336Z,96.08
2019-02-28T18:42:41.741Z,111.05
2019-02-28T18:45:15.625Z,97.10
2019-02-28T18:47:44.865Z,164.25
2019-02-28T18:50:15.260Z,123.75
2019-02-28T18:52:45.628Z,225.03
2019-02-28T18:55:16.246Z,139.47
2019-02-28T18:57:46.647Z,111.30
2019-02-28T19:00:18.924Z,103.40
2019-02-28T19:02:49.565Z,108.92
2019-02-28T19:05:20.206Z,104.32
2019-02-28T19:07:50.803Z,100.60
2019-02-28T19:10:21.138Z,99.62
2019-02-28T19:12:51.554Z,114.28
2019-02-28T19:15:22.286Z,104.67
2019-02-28T19:17:52.656Z,100.60
2019-02-28T19:20:23.013Z,97.85
2019-02-28T19:22:53.366Z,474.98
2019-02-28T19:25:23.948Z,119.35
2019-02-28T19:27:54.620Z,212.93
2019-02-28T19:30:25.225Z,179.60
2019-02-28T19:32:55.824Z,158.72
2019-02-28T19:35:26.196Z,201.92
2019-02-28T19:37:56.566Z,228.20
2019-02-28T19:40:26.896Z,129.68
2019-02-28T19:42:57.967Z,133.70
2019-02-28T19:45:44.507Z,150.03
2019-02-28T19:48:15.490Z,133.32
2019-02-28T19:50:45.853Z,146.15
2019-02-28T19:53:16.549Z,141.75
2019-02-28T19:55:46.888Z,116.67
2019-02-28T19:58:18.847Z,134.83
2019-02-28T20:00:49.406Z,130.30
2019-02-28T20:03:19.784Z,107.80
2019-02-28T20:05:50.126Z,119.55
2019-02-28T20:08:20.811Z,119.15
2019-02-28T20:10:51.285Z,139.03
2019-02-28T20:13:22.335Z,114.72
2019-02-28T20:15:52.965Z,122.13
2019-02-28T20:18:23.330Z,128.93
2019-02-28T20:20:53.975Z,148.68
2019-02-28T20:23:25.084Z,132.60
2019-02-28T20:25:55.747Z,125.65
2019-02-28T20:28:26.084Z,147.65
2019-02-28T20:30:57.018Z,117.00
2019-02-28T20:33:27.623Z,121.75
2019-02-28T20:35:57.954Z,121.67
2019-02-28T20:38:28.320Z,115.80
2019-02-28T20:40:58.958Z,120.70
2019-02-28T20:43:29.309Z,130.70
2019-02-28T20:45:59.926Z,109.90
2019-02-28T20:48:30.582Z,113.55
2019-02-28T20:51:00.930Z,121.42
2019-02-28T20:53:31.289Z,121.70
2019-02-28T20:56:02.040Z,117.13
2019-02-28T20:58:32.716Z,113.08
2019-02-28T21:01:03.242Z,116.50
2019-02-28T21:03:33.598Z,114.05
2019-02-28T21:06:04.002Z,113.22
2019-02-28T21:08:34.378Z,127.17
2019-02-28T21:11:05.135Z,110.22
2019-02-28T21:13:35.505Z,121.33
2019-02-28T21:16:05.857Z,108.37
2019-02-28T21:18:36.229Z,100.55
2019-02-28T21:21:06.874Z,108.32
2019-02-28T21:23:37.577Z,113.62
2019-02-28T21:26:09.364Z,115.88
2019-02-28T21:28:40.028Z,105.17
2019-02-28T21:31:10.399Z,124.05
2019-02-28T21:33:40.813Z,120.82
2019-02-28T21:36:11.479Z,112.22
2019-02-28T21:38:42.826Z,109.75
2019-02-28T21:41:13.497Z,110.48
2019-02-28T21:43:44.179Z,103.00
2019-02-28T21:46:14.544Z,110.22
2019-02-28T21:48:44.915Z,111.40
2019-02-28T21:51:15.260Z,108.12
2019-02-28T21:53:45.672Z,101.75
2019-02-28T21:56:16.033Z,108.42
2019-02-28T21:58:46.370Z,106.22
2019-02-28T22:01:16.793Z,101.67
2019-02-28T22:03:47.453Z,106.15
2019-02-28T22:06:19.415Z,97.47
2019-02-28T22:08:49.837Z,101.92
2019-02-28T22:11:20.441Z,98.07
2019-02-28T22:13:51.108Z,98.85
2019-02-28T22:16:21.442Z,108.45
2019-02-28T22:18:51.932Z,97.15
2019-02-28T22:21:22.360Z,80.07
2019-02-28T22:23:53.260Z,91.72
2019-02-28T22:26:23.920Z,92.80
2019-02-28T22:28:54.269Z,95.12
2019-02-28T22:31:39.006Z,86.87
2019-02-28T22:34:11.013Z,83.55
2019-02-28T22:36:42.128Z,94.17
2019-02-28T22:39:12.471Z,79.27
2019-02-28T22:41:43.172Z,83.42
2019-02-28T22:44:13.852Z,78.78
2019-02-28T22:46:44.459Z,76.90
2019-02-28T22:49:15.057Z,79.35
2019-02-28T22:51:45.484Z,90.15
2019-02-28T22:54:15.995Z,86.82
2019-02-28T22:56:46.674Z,77.95
2019-02-28T22:59:17.026Z,85.50
2019-02-28T23:01:47.378Z,81.47
2019-02-28T23:04:17.991Z,72.15
2019-02-28T23:06:48.352Z,75.72
2019-02-28T23:09:19.075Z,80.22
2019-02-28T23:11:49.383Z,69.62
2019-02-28T23:14:20.005Z,73.37
2019-02-28T23:16:50.922Z,80.62
2019-02-28T23:19:21.880Z,73.07
2019-02-28T23:21:52.503Z,83.00
2019-02-28T23:24:22.840Z,73.50
2019-02-28T23:27:14.716Z,86.17
2019-02-28T23:29:52.903Z,70.20
2019-02-28T23:32:30.936Z,75.55
2019-02-28T23:35:01.266Z,76.60
2019-02-28T23:37:31.897Z,89.72
2019-02-28T23:40:02.221Z,84.30
2019-02-28T23:42:32.883Z,75.03
2019-02-28T23:45:03.588Z,75.62
2019-02-28T23:47:34.195Z,78.80
2019-02-28T23:50:08.931Z,80.10
2019-02-28T23:52:39.614Z,78.67
2019-02-28T23:55:10.610Z,73.67
2019-02-28T23:57:40.976Z,74.82
